Time;durP1;ratioP1;P1;durP2;ratioP2;P2;SDS_P1;SDS_P2;PMS_P1;PMS_P2;Temp;Humidity;BMP_temperature;BMP_pressure;BME280_temperature;BME280_humidity;BME280_pressure;Samples;Min_cycle;Max_cycle;Signal;HPM_P1;HPM_P2
2021/05/30 00:01:27;;;;;;;13.70;3.65;;;;;;;10.10;76.95;100856.67;125766;1101;22750;-59
2021/05/30 00:03:58;;;;;;;11.97;3.97;;;;;;;10.09;77.18;100849.55;125719;1096;27397;-59
2021/05/30 00:06:33;;;;;;;12.53;3.47;;;;;;;10.05;77.07;100848.92;125717;1101;22763;-59
2021/05/30 00:09:05;;;;;;;13.43;3.80;;;;;;;10.04;77.21;100852.94;125966;1101;22757;-60
2021/05/30 00:11:37;;;;;;;11.85;3.50;;;;;;;10.02;77.08;100850.61;125769;1101;22775;-60
2021/05/30 00:14:07;;;;;;;13.17;3.83;;;;;;;10.01;77.27;100860.23;125846;1101;22816;-58
2021/05/30 00:16:38;;;;;;;12.10;3.65;;;;;;;9.98;77.37;100855.56;125832;1101;22782;-61
2021/05/30 00:19:08;;;;;;;9.67;3.03;;;;;;;9.93;77.41;100850.58;125868;1101;22817;-61
2021/05/30 00:21:38;;;;;;;11.83;3.38;;;;;;;9.87;77.60;100855.20;125879;1101;22744;-59
2021/05/30 00:24:10;;;;;;;9.75;3.13;;;;;;;9.77;77.54;100864.78;125791;1100;22750;-58
2021/05/30 00:26:40;;;;;;;12.30;3.67;;;;;;;9.70;77.85;100859.50;125883;1101;22875;-59
2021/05/30 00:29:13;;;;;;;13.08;3.63;;;;;;;9.65;77.98;100865.66;125853;1097;22819;-58
2021/05/30 00:31:42;;;;;;;10.83;3.47;;;;;;;9.58;78.19;100863.16;125815;1101;22810;-60
2021/05/30 00:34:12;;;;;;;11.23;3.55;;;;;;;9.54;78.37;100866.06;125829;1097;26244;-61
2021/05/30 00:36:43;;;;;;;11.18;3.20;;;;;;;9.49;78.46;100858.31;125818;1101;22739;-59
2021/05/30 00:39:13;;;;;;;13.83;4.60;;;;;;;9.46;78.61;100866.80;125854;1101;22765;-59
2021/05/30 00:41:44;;;;;;;13.17;3.93;;;;;;;9.43;78.71;100867.72;125722;1101;22760;-59
2021/05/30 00:44:26;;;;;;;11.00;4.05;;;;;;;9.42;78.62;100864.15;125819;1095;25864;-59
2021/05/30 00:46:57;;;;;;;14.33;3.73;;;;;;;9.43;78.91;100873.30;125936;1101;22767;-59
2021/05/30 00:49:28;;;;;;;10.85;3.40;;;;;;;9.43;78.88;100871.30;125937;1097;22737;-59
2021/05/30 00:51:58;;;;;;;13.37;3.97;;;;;;;9.46;79.06;100872.36;125927;1097;27272;-58
2021/05/30 00:54:29;;;;;;;12.28;3.25;;;;;;;9.45;78.90;100871.61;125775;1096;28006;-58
2021/05/30 00:57:00;;;;;;;13.57;4.47;;;;;;;9.46;78.76;100875.94;125946;1101;25552;-62
2021/05/30 00:59:30;;;;;;;13.20;4.20;;;;;;;9.45;78.95;100879.19;125976;1101;24441;-60
2021/05/30 01:02:01;;;;;;;11.90;3.37;;;;;;;9.43;79.22;100878.87;125929;1101;22723;-57
2021/05/30 01:04:32;;;;;;;8.15;2.78;;;;;;;9.40;78.93;100877.77;126083;1101;22810;-59
2021/05/30 01:07:02;;;;;;;10.87;3.63;;;;;;;9.40;79.15;100886.13;125934;1101;22865;-60
2021/05/30 01:09:33;;;;;;;12.67;3.47;;;;;;;9.38;79.06;100877.44;126116;1101;24536;-59
2021/05/30 01:12:03;;;;;;;;;;;;;;;9.39;79.10;100876.22;125949;1095;26243;-59
2021/05/30 01:14:36;;;;;;;10.77;2.67;;;;;;;9.40;79.07;100882.55;125973;1101;21462;-58
2021/05/30 01:17:09;;;;;;;10.53;3.13;;;;;;;9.40;78.98;100883.33;125902;1096;22766;-58
2021/05/30 01:19:43;;;;;;;10.90;2.70;;;;;;;9.40;79.11;100883.33;125998;1101;23371;-61
2021/05/30 01:22:15;;;;;;;11.37;3.50;;;;;;;9.42;78.97;100888.45;125982;1097;22809;-58
2021/05/30 01:24:45;;;;;;;8.20;2.90;;;;;;;9.42;79.05;100882.88;126012;1097;25893;-61
2021/05/30 01:27:17;;;;;;;9.48;3.10;;;;;;;9.42;79.18;100885.66;126040;1101;22958;-59
2021/05/30 01:29:51;;;;;;;9.13;2.63;;;;;;;9.42;79.15;100891.23;125981;1101;23556;-59
2021/05/30 01:32:23;;;;;;;11.67;3.00;;;;;;;9.42;79.19;100885.66;125819;1101;24566;-59
2021/05/30 01:34:53;;;;;;;11.90;3.17;;;;;;;9.39;79.20;100881.02;125946;1101;24394;-61
2021/05/30 01:37:23;;;;;;;9.63;2.97;;;;;;;9.37;78.88;100881.45;125997;1095;25862;-58
2021/05/30 01:39:53;;;;;;;12.08;3.15;;;;;;;9.40;78.99;100880.55;126017;1101;22734;-59
2021/05/30 01:42:23;;;;;;;10.30;3.03;;;;;;;9.39;79.16;100887.37;125907;1094;27658;-59
2021/05/30 01:44:53;;;;;;;9.03;2.73;;;;;;;9.38;78.97;100887.80;125898;1096;26213;-58
2021/05/30 01:47:24;;;;;;;12.17;3.00;;;;;;;9.39;78.98;100883.80;126048;1097;22819;-59
2021/05/30 01:49:54;;;;;;;10.70;3.37;;;;;;;9.39;78.97;100886.59;125869;1101;22922;-61
2021/05/30 01:52:23;;;;;;;11.20;3.45;;;;;;;9.38;78.78;100885.02;126161;1096;22753;-59
2021/05/30 01:54:53;;;;;;;10.05;2.45;;;;;;;9.39;79.09;100887.37;125859;1101;24460;-58
2021/05/30 01:57:23;;;;;;;10.88;2.85;;;;;;;9.39;78.78;100886.59;125973;1096;22772;-57
2021/05/30 01:59:53;;;;;;;10.45;2.45;;;;;;;9.38;78.78;100880.23;125902;1097;22761;-58
2021/05/30 02:02:24;;;;;;;;;;;;;;;9.42;78.79;100882.88;125865;1101;22738;-59
2021/05/30 02:04:56;;;;;;;11.40;3.40;;;;;;;9.43;78.64;100887.23;125894;1096;21609;-59
2021/05/30 02:07:26;;;;;;;7.47;2.40;;;;;;;9.42;78.32;100880.09;125891;1101;22734;-58
2021/05/30 02:09:59;;;;;;;8.80;2.37;;;;;;;9.40;78.43;100876.98;125971;1101;22796;-61
2021/05/30 02:12:29;;;;;;;10.60;2.53;;;;;;;9.38;78.55;100885.02;126187;1097;26191;-59
2021/05/30 02:15:03;;;;;;;8.75;2.40;;;;;;;9.34;78.62;100876.02;126054;1101;22804;-56
2021/05/30 02:17:34;;;;;;;8.95;2.40;;;;;;;9.31;78.65;100877.70;126182;1101;22751;-60
2021/05/30 02:20:06;;;;;;;13.25;2.45;;;;;;;9.32;78.61;100881.27;125851;1101;22790;-57
2021/05/30 02:22:36;;;;;;;10.43;2.30;;;;;;;9.28;78.76;100878.63;126022;1101;22768;-56
2021/05/30 02:25:09;;;;;;;10.20;3.10;;;;;;;9.26;78.75;100885.88;125953;1096;25848;-59
2021/05/30 02:27:40;;;;;;;8.33;2.70;;;;;;;9.24;78.86;100883.55;125953;1101;22755;-57
2021/05/30 02:30:12;;;;;;;11.15;2.98;;;;;;;9.22;78.64;100882.44;125904;1101;22796;-57
2021/05/30 02:32:43;;;;;;;11.23;3.20;;;;;;;9.19;78.83;100884.13;125936;1101;22910;-59
2021/05/30 02:35:15;;;;;;;8.35;3.20;;;;;;;9.18;78.75;100888.16;125900;1096;22737;-59
2021/05/30 02:37:45;;;;;;;7.75;2.40;;;;;;;9.16;78.74;100887.05;126185;1101;22772;-59
2021/05/30 02:40:16;;;;;;;10.28;2.30;;;;;;;9.16;78.77;100890.62;125858;1101;22778;-57
2021/05/30 02:42:46;;;;;;;8.70;2.40;;;;;;;9.14;78.79;100900.66;125904;1101;22828;-58
2021/05/30 02:45:16;;;;;;;7.55;2.30;;;;;;;9.12;78.70;100897.55;125959;1101;22744;-59
2021/05/30 02:47:47;;;;;;;13.35;2.80;;;;;;;9.11;78.70;100884.83;125922;1101;22736;-58
2021/05/30 02:50:16;;;;;;;8.77;2.40;;;;;;;9.10;78.75;100900.00;125952;1097;22782;-59
2021/05/30 02:52:47;;;;;;;8.20;2.03;;;;;;;9.09;78.78;100899.22;125948;1101;22813;-61
2021/05/30 02:55:16;;;;;;;8.00;2.38;;;;;;;9.08;78.78;100900.47;125915;1096;22737;-59
2021/05/30 02:57:46;;;;;;;6.08;1.98;;;;;;;9.10;78.69;100894.44;125967;1101;22738;-58
2021/05/30 03:00:19;;;;;;;9.43;1.98;;;;;;;9.10;78.75;100897.22;125728;1101;22819;-58
2021/05/30 03:02:49;;;;;;;7.33;2.20;;;;;;;9.12;78.87;100905.91;125841;1096;27200;-61
2021/05/30 03:05:19;;;;;;;7.93;2.05;;;;;;;9.12;78.36;100898.33;125929;1101;22816;-58
2021/05/30 03:07:50;;;;;;;8.60;2.33;;;;;;;9.11;78.59;100907.91;125832;1101;22809;-57
2021/05/30 03:10:20;;;;;;;7.63;2.30;;;;;;;9.12;78.62;100917.83;125771;1101;22883;-58
2021/05/30 03:12:50;;;;;;;8.33;2.40;;;;;;;9.13;78.84;100918.58;125776;1101;22760;-58
2021/05/30 03:15:21;;;;;;;6.58;1.83;;;;;;;9.11;78.61;100919.05;125790;1096;27687;-59
2021/05/30 03:17:51;;;;;;;7.53;2.23;;;;;;;9.10;78.66;100920.29;125944;1101;22860;-59
2021/05/30 03:20:21;;;;;;;9.25;2.25;;;;;;;9.10;78.69;100930.64;125796;1101;22756;-58
2021/05/30 03:22:51;;;;;;;8.13;2.23;;;;;;;9.07;78.69;100926.75;125804;1101;22755;-58
2021/05/30 03:25:21;;;;;;;9.25;2.45;;;;;;;9.06;78.61;100924.42;125850;1095;25922;-59
2021/05/30 03:27:50;;;;;;;;;;;;;;;9.07;78.80;100931.53;125927;1101;22722;-56
2021/05/30 03:30:21;;;;;;;10.07;2.47;;;;;;;9.07;78.65;100937.89;125722;1101;21490;-60
2021/05/30 03:32:51;;;;;;;8.77;2.33;;;;;;;9.09;78.40;100935.43;126088;1101;22737;-58
2021/05/30 03:35:24;;;;;;;7.20;2.00;;;;;;;9.12;78.53;100939.33;125768;1101;22747;-59
2021/05/30 03:37:56;;;;;;;7.80;2.40;;;;;;;9.14;78.35;100942.44;125819;1096;27163;-58
2021/05/30 03:40:30;;;;;;;8.10;2.15;;;;;;;9.17;78.30;100939.52;125879;1097;23595;-60
2021/05/30 03:43:00;;;;;;;8.03;2.13;;;;;;;9.19;78.13;100942.63;126052;1097;22798;-60
2021/05/30 03:45:30;;;;;;;7.23;2.58;;;;;;;9.20;78.04;100946.98;125918;1101;22880;-58
2021/05/30 03:48:00;;;;;;;6.90;2.10;;;;;;;9.23;78.07;100943.27;125835;1101;22809;-58
2021/05/30 03:50:30;;;;;;;7.73;2.30;;;;;;;9.24;77.68;100949.63;125815;1101;22755;-58
2021/05/30 03:53:00;;;;;;;6.13;1.85;;;;;;;9.22;78.10;100954.88;125797;1101;24510;-61
2021/05/30 03:55:30;;;;;;;8.20;2.13;;;;;;;9.21;77.91;100947.77;125733;1101;22802;-59
2021/05/30 03:58:01;;;;;;;8.18;2.33;;;;;;;9.20;77.92;100946.98;125873;1101;22760;-58
2021/05/30 04:00:29;;;;;;;;;;;;;;;9.22;77.88;100940.95;125845;1101;22737;-61
2021/05/30 04:02:59;;;;;;;7.90;1.70;;;;;;;9.22;77.85;100957.66;125912;1097;21464;-60
2021/05/30 04:05:29;;;;;;;8.60;2.23;;;;;;;9.23;77.76;100945.30;125865;1101;25667;-59
2021/05/30 04:07:59;;;;;;;9.05;2.73;;;;;;;9.25;77.75;100945.63;125992;1101;22887;-58
2021/05/30 04:10:29;;;;;;;9.15;2.40;;;;;;;9.30;77.80;100942.24;126233;1101;22754;-58
2021/05/30 04:12:59;;;;;;;8.00;1.98;;;;;;;9.32;77.77;100945.36;126228;1097;22737;-58
2021/05/30 04:15:28;;;;;;;7.63;1.88;;;;;;;9.33;77.67;100947.67;126298;1101;22765;-59
2021/05/30 04:17:58;;;;;;;9.13;2.75;;;;;;;9.34;77.27;100952.03;126246;1101;22707;-59
2021/05/30 04:20:30;;;;;;;7.40;2.43;;;;;;;9.36;77.70;100963.50;126208;1096;27134;-59
2021/05/30 04:23:00;;;;;;;8.23;2.47;;;;;;;9.38;77.71;100963.04;126278;1101;25555;-58
2021/05/30 04:25:30;;;;;;;9.70;2.65;;;;;;;9.42;77.38;100963.69;126487;1101;22726;-59
2021/05/30 04:28:00;;;;;;;8.20;3.20;;;;;;;9.44;77.71;100961.23;126280;1101;22754;-60
2021/05/30 04:30:30;;;;;;;7.90;2.90;;;;;;;9.48;77.80;100954.30;126241;1101;22776;-59
2021/05/30 04:33:00;;;;;;;7.83;2.68;;;;;;;9.54;77.45;100960.05;126249;1101;25597;-59
2021/05/30 04:35:31;;;;;;;13.88;3.53;;;;;;;9.58;77.40;100964.27;126277;1101;22753;-58
2021/05/30 04:38:02;;;;;;;10.93;3.47;;;;;;;9.64;77.46;100965.23;126236;1101;22726;-58
2021/05/30 04:40:33;;;;;;;11.60;2.77;;;;;;;9.69;77.20;100961.09;126231;1101;23021;-59
2021/05/30 04:43:03;;;;;;;9.50;3.23;;;;;;;9.74;76.97;100961.27;126355;1101;22855;-60
2021/05/30 04:45:33;;;;;;;10.23;2.93;;;;;;;9.79;76.86;100971.05;126241;1101;22761;-59
2021/05/30 04:48:04;;;;;;;7.68;2.70;;;;;;;9.85;76.92;100974.80;126264;1101;23615;-58
2021/05/30 04:50:35;;;;;;;9.15;2.65;;;;;;;9.90;76.36;100976.23;126375;1101;22737;-58
2021/05/30 04:53:06;;;;;;;8.53;3.10;;;;;;;9.95;76.56;100979.22;126335;1096;22761;-58
2021/05/30 04:55:39;;;;;;;9.67;3.60;;;;;;;9.98;76.55;100981.08;126351;1101;22812;-58
2021/05/30 04:58:09;;;;;;;10.43;3.50;;;;;;;10.02;76.04;100980.94;126437;1101;22744;-59
2021/05/30 05:00:39;;;;;;;9.13;3.28;;;;;;;10.04;75.91;100982.05;126308;1095;26314;-58
2021/05/30 05:03:08;;;;;;;10.20;3.08;;;;;;;10.11;75.62;100992.18;126268;1101;24207;-58
2021/05/30 05:05:38;;;;;;;9.68;3.85;;;;;;;10.14;75.87;100989.24;126219;1101;22803;-58
2021/05/30 05:08:08;;;;;;;9.38;2.98;;;;;;;10.23;75.57;100983.72;126286;1096;27141;-58
2021/05/30 05:10:41;;;;;;;8.63;3.43;;;;;;;10.27;75.80;100984.35;126312;1101;22734;-59
2021/05/30 05:13:13;;;;;;;11.43;3.53;;;;;;;10.30;75.57;100979.87;126246;1101;22992;-59
2021/05/30 05:15:45;;;;;;;10.70;3.50;;;;;;;10.32;75.16;100985.77;126184;1101;25705;-60
2021/05/30 05:18:21;;;;;;;8.70;3.40;;;;;;;10.33;75.31;100992.89;126250;1095;25890;-58
2021/05/30 05:20:52;;;;;;;9.05;3.20;;;;;;;10.32;74.97;100994.92;126334;1096;22737;-58
2021/05/30 05:23:24;;;;;;;9.20;2.80;;;;;;;10.27;75.04;101000.31;126362;1101;22726;-58
2021/05/30 05:25:56;;;;;;;8.27;3.27;;;;;;;10.24;74.71;100993.63;126252;1101;22740;-59
2021/05/30 05:28:26;;;;;;;9.53;2.93;;;;;;;10.20;74.83;101006.94;126240;1101;22766;-59
2021/05/30 05:30:56;;;;;;;;;;;;;;;10.23;74.81;101008.05;126280;1101;22725;-59
2021/05/30 05:33:26;;;;;;;8.00;2.17;;;;;;;10.25;74.91;101005.58;126483;1095;25659;-59
2021/05/30 05:35:56;;;;;;;8.18;2.45;;;;;;;10.23;75.15;101010.84;126291;1101;22755;-58
2021/05/30 05:38:26;;;;;;;5.08;1.90;;;;;;;10.24;74.46;101009.61;126885;1085;22735;-58
2021/05/30 05:40:56;;;;;;;8.60;2.78;;;;;;;10.23;74.13;101008.05;126236;1096;27148;-58
2021/05/30 05:43:28;;;;;;;6.10;2.07;;;;;;;10.22;73.69;101014.88;125885;1101;22812;-57
2021/05/30 05:45:59;;;;;;;7.10;2.10;;;;;;;10.21;73.91;101014.09;125895;1101;22738;-58
2021/05/30 05:48:29;;;;;;;6.47;2.10;;;;;;;10.22;73.58;101012.84;125876;1097;25816;-57
2021/05/30 05:51:00;;;;;;;7.70;1.95;;;;;;;10.27;73.49;101006.67;125751;1101;23172;-58
2021/05/30 05:53:31;;;;;;;5.50;1.80;;;;;;;10.32;73.45;101003.30;125909;1101;22754;-58
2021/05/30 05:56:00;;;;;;;;;;;;;;;10.37;73.97;101008.27;125997;1101;23036;-56
2021/05/30 05:58:30;;;;;;;6.47;2.20;;;;;;;10.44;73.75;101019.16;126015;1101;21465;-58
2021/05/30 06:01:00;;;;;;;9.18;2.63;;;;;;;10.49;73.98;101020.58;125811;1096;26883;-57
2021/05/30 06:03:31;;;;;;;5.35;1.80;;;;;;;10.52;73.96;101012.05;125817;1101;22806;-57
2021/05/30 06:06:03;;;;;;;7.33;2.10;;;;;;;10.56;73.76;101017.48;125814;1096;22732;-57
2021/05/30 06:08:34;;;;;;;7.07;2.00;;;;;;;10.60;74.07;101018.12;125890;1101;22755;-58
2021/05/30 06:11:04;;;;;;;6.90;2.25;;;;;;;10.59;73.78;101022.16;125887;1101;22813;-58
2021/05/30 06:13:34;;;;;;;6.13;1.85;;;;;;;10.58;73.34;101026.17;125836;1095;28464;-58
2021/05/30 06:16:06;;;;;;;7.23;2.77;;;;;;;10.59;73.94;101024.95;125867;1096;26856;-58
2021/05/30 06:18:37;;;;;;;7.37;1.77;;;;;;;10.64;73.17;101029.13;125946;1101;22793;-58
2021/05/30 06:21:07;;;;;;;6.33;1.70;;;;;;;10.65;73.28;101025.11;125902;1095;25925;-59
2021/05/30 06:23:38;;;;;;;7.28;1.90;;;;;;;10.67;73.17;101025.44;126089;1097;22744;-57
2021/05/30 06:26:10;;;;;;;6.77;1.90;;;;;;;10.67;73.12;101028.22;125987;1101;22774;-58
2021/05/30 06:28:40;;;;;;;5.70;1.93;;;;;;;10.67;72.35;101020.63;125965;1096;23225;-57
2021/05/30 06:31:10;;;;;;;6.38;1.40;;;;;;;10.69;72.48;101026.53;125826;1101;22754;-59
2021/05/30 06:33:40;;;;;;;4.28;1.40;;;;;;;10.74;72.47;101033.53;125846;1101;22832;-58
2021/05/30 06:36:10;;;;;;;6.68;1.70;;;;;;;10.79;72.36;101032.91;125683;1101;22803;-57
2021/05/30 06:38:40;;;;;;;4.40;1.50;;;;;;;10.81;72.27;101036.80;125668;1101;23412;-57
2021/05/30 06:41:10;;;;;;;4.73;1.63;;;;;;;10.84;72.03;101035.11;125808;1101;22737;-57
2021/05/30 06:43:40;;;;;;;5.08;1.50;;;;;;;10.88;72.65;101041.33;125836;1101;25817;-58
2021/05/30 06:46:10;;;;;;;5.78;1.80;;;;;;;10.95;72.22;101030.63;126121;1101;22825;-59
2021/05/30 06:48:42;;;;;;;5.58;1.70;;;;;;;11.02;72.30;101041.52;125931;1096;22755;-59
2021/05/30 06:51:13;;;;;;;7.30;1.80;;;;;;;11.09;71.86;101040.44;125892;1096;22765;-58
2021/05/30 06:53:45;;;;;;;5.03;1.60;;;;;;;11.16;72.38;101040.13;125966;1101;22813;-58
2021/05/30 06:56:15;;;;;;;6.40;1.70;;;;;;;11.19;71.91;101053.19;125873;1096;27116;-59
2021/05/30 06:58:46;;;;;;;5.80;1.85;;;;;;;11.20;72.24;101049.13;125992;1101;22744;-59
2021/05/30 07:01:18;;;;;;;6.63;1.90;;;;;;;11.16;71.84;101051.30;125892;1101;22758;-60
2021/05/30 07:03:49;;;;;;;6.30;2.00;;;;;;;11.11;71.92;101049.89;125922;1101;22737;-59
2021/05/30 07:06:22;;;;;;;6.83;2.20;;;;;;;11.11;72.03;101057.52;125826;1096;26215;-58
2021/05/30 07:08:52;;;;;;;9.03;2.37;;;;;;;11.09;71.94;101049.58;126012;1101;22879;-58
2021/05/30 07:11:22;;;;;;;8.70;2.10;;;;;;;11.07;72.28;101046.47;125928;1096;22806;-59
2021/05/30 07:13:52;;;;;;;6.87;2.17;;;;;;;11.02;71.61;101060.28;125890;1101;22750;-59
2021/05/30 07:16:21;;;;;;;7.58;2.30;;;;;;;10.96;72.28;101062.92;126018;1101;22819;-59
2021/05/30 07:18:52;;;;;;;10.38;2.50;;;;;;;10.94;72.16;101065.41;125876;1101;22742;-60
2021/05/30 07:21:22;;;;;;;7.28;1.88;;;;;;;10.94;72.18;101067.41;125945;1101;22812;-59
2021/05/30 07:23:51;;;;;;;;;;;;;;;10.92;71.77;101072.69;125954;1101;22762;-59
2021/05/30 07:26:31;;;;;;;7.35;2.45;;;;;;;10.85;72.21;101076.53;125908;1096;24399;-58
2021/05/30 07:29:01;;;;;;;5.67;1.83;;;;;;;10.82;72.24;101085.07;126194;1101;22819;-58
2021/05/30 07:31:31;;;;;;;5.53;1.90;;;;;;;10.79;71.93;101080.39;125904;1101;22733;-58
2021/05/30 07:34:02;;;;;;;7.03;2.73;;;;;;;10.79;72.35;101075.59;126150;1096;27234;-58
2021/05/30 07:36:33;;;;;;;6.97;2.33;;;;;;;10.80;72.11;101085.51;126113;1101;22809;-58
2021/05/30 07:39:03;;;;;;;6.17;2.50;;;;;;;10.81;72.41;101089.88;125876;1101;22755;-59
2021/05/30 07:41:34;;;;;;;;;;;;;;;10.87;72.49;101095.63;126126;1097;26222;-58
2021/05/30 07:44:04;;;;;;;4.50;1.78;;;;;;;10.88;72.62;101097.98;125936;1096;21582;-58
2021/05/30 07:46:34;;;;;;;7.63;2.67;;;;;;;10.85;72.58;101098.88;126332;1101;22731;-58
2021/05/30 07:49:04;;;;;;;8.55;2.75;;;;;;;10.77;72.66;101096.83;125908;1101;24454;-55
2021/05/30 07:51:35;;;;;;;9.13;3.07;;;;;;;10.70;72.72;101105.52;125953;1096;22731;-57
2021/05/30 07:54:06;;;;;;;8.20;3.00;;;;;;;10.68;72.63;101110.78;126057;1095;25852;-58
2021/05/30 07:56:38;;;;;;;7.87;2.70;;;;;;;10.66;72.67;101105.63;125949;1101;22734;-58
2021/05/30 07:59:09;;;;;;;7.67;2.40;;;;;;;10.65;72.74;101106.88;125990;1101;22733;-56
2021/05/30 08:01:39;;;;;;;9.03;2.70;;;;;;;10.62;72.94;101110.58;125820;1096;22735;-57
2021/05/30 08:04:09;;;;;;;9.20;2.80;;;;;;;10.57;73.02;101106.36;125818;1095;25967;-59
2021/05/30 08:06:39;;;;;;;8.68;2.83;;;;;;;10.52;73.11;101112.56;125886;1095;25842;-56
2021/05/30 08:09:09;;;;;;;7.93;2.55;;;;;;;10.48;73.25;101111.13;125899;1101;22750;-56
2021/05/30 08:11:38;;;;;;;;;;;;;;;10.46;73.45;101113.61;125899;1101;22751;-57
2021/05/30 08:14:09;;;;;;;10.50;3.30;;;;;;;10.47;73.67;101115.94;125884;1101;24179;-58
2021/05/30 08:16:41;;;;;;;12.50;3.33;;;;;;;10.49;73.75;101116.25;126151;1095;25839;-58
2021/05/30 08:19:12;;;;;;;9.47;4.03;;;;;;;10.47;73.79;101118.72;126029;1101;22754;-57
2021/05/30 08:21:43;;;;;;;9.83;3.20;;;;;;;10.45;73.71;101128.78;126069;1097;22929;-56
2021/05/30 08:24:14;;;;;;;8.27;3.20;;;;;;;10.43;73.68;101132.04;126052;1096;27913;-57
2021/05/30 08:26:44;;;;;;;7.80;2.53;;;;;;;10.41;73.66;101131.72;125933;1101;22771;-57
2021/05/30 08:29:14;;;;;;;6.63;2.53;;;;;;;10.45;73.74;101125.99;125954;1101;22752;-57
2021/05/30 08:31:46;;;;;;;8.37;2.80;;;;;;;10.51;73.86;101132.56;125972;1101;22816;-57
2021/05/30 08:34:16;;;;;;;9.00;2.33;;;;;;;10.56;73.93;101129.95;125872;1096;27150;-57
2021/05/30 08:36:46;;;;;;;6.80;2.40;;;;;;;10.56;74.08;101126.38;125921;1096;27469;-57
2021/05/30 08:39:15;;;;;;;;;;;;;;;10.53;73.67;101130.84;126041;1101;22734;-57
2021/05/30 08:41:45;;;;;;;7.53;2.70;;;;;;;10.52;73.95;101131.31;125921;1101;21462;-58
2021/05/30 08:44:15;;;;;;;9.45;3.98;;;;;;;10.53;73.77;101136.44;126095;1101;22738;-57
2021/05/30 08:46:46;;;;;;;8.73;3.47;;;;;;;10.55;73.91;101139.55;125910;1101;23434;-57
2021/05/30 08:49:19;;;;;;;7.33;2.90;;;;;;;10.58;73.94;101138.64;125959;1097;22764;-57
2021/05/30 08:51:49;;;;;;;10.63;3.95;;;;;;;10.66;73.92;101141.93;125885;1101;22728;-57
2021/05/30 08:54:20;;;;;;;10.65;2.98;;;;;;;10.74;74.12;101134.83;125893;1101;24429;-57
2021/05/30 08:56:51;;;;;;;8.27;3.00;;;;;;;10.84;73.82;101136.42;125871;1101;22749;-57
2021/05/30 08:59:30;;;;;;;9.38;3.43;;;;;;;10.90;73.54;101131.81;126000;1101;23173;-57
2021/05/30 09:02:03;;;;;;;8.93;3.00;;;;;;;10.98;73.39;101141.47;126034;1096;26070;-56
2021/05/30 09:04:34;;;;;;;8.50;3.25;;;;;;;11.07;73.51;101132.34;126008;1096;25344;-57
2021/05/30 09:07:06;;;;;;;11.40;3.67;;;;;;;11.16;73.24;101138.72;126038;1101;22867;-57
2021/05/30 09:09:40;;;;;;;8.45;2.80;;;;;;;11.19;72.95;101137.78;126048;1096;22902;-57
2021/05/30 09:12:21;;;;;;;9.47;3.67;;;;;;;11.22;72.93;101138.88;125960;1101;22731;-57
2021/05/30 09:14:53;;;;;;;10.07;3.80;;;;;;;11.28;73.11;101132.23;125865;1101;22902;-57
2021/05/30 09:17:27;;;;;;;27.33;11.07;;;;;;;11.33;73.28;101142.03;125949;1096;26369;-57
2021/05/30 09:19:58;;;;;;;48.10;14.60;;;;;;;11.30;72.89;101135.34;125950;1101;22729;-58
2021/05/30 09:22:33;;;;;;;36.03;14.63;;;;;;;11.29;73.07;101141.40;126020;1101;22762;-57
2021/05/30 09:25:20;;;;;;;12.93;4.70;;;;;;;11.33;73.07;101142.03;126033;1097;22771;-58
2021/05/30 09:27:57;;;;;;;8.47;3.03;;;;;;;11.34;72.86;101137.98;125826;1101;22932;-57
2021/05/30 09:30:30;;;;;;;7.57;3.03;;;;;;;11.36;72.67;101141.88;126086;1101;22799;-58
2021/05/30 09:33:06;;;;;;;8.50;3.53;;;;;;;11.38;72.53;101149.79;126034;1096;26495;-58
2021/05/30 09:36:01;;;;;;;9.40;4.15;;;;;;;11.51;72.91;101141.27;126000;1101;22768;-58
2021/05/30 09:38:39;;;;;;;7.03;2.50;;;;;;;11.65;72.03;101155.43;125661;1100;22823;-58
2021/05/30 09:41:11;;;;;;;8.07;2.40;;;;;;;11.79;72.02;101148.50;125671;1104;22757;-58
2021/05/30 09:43:50;;;;;;;8.00;2.50;;;;;;;11.89;71.79;101156.43;125859;1104;22853;-59
2021/05/30 09:46:21;;;;;;;6.80;2.55;;;;;;;12.01;71.57;101152.69;125670;1104;25346;-59
2021/05/30 09:48:59;;;;;;;7.95;2.85;;;;;;;12.05;71.61;101150.52;125607;1104;22912;-57
2021/05/30 09:51:35;;;;;;;9.50;3.25;;;;;;;12.05;71.93;101149.72;125610;1104;22846;-58
2021/05/30 09:54:07;;;;;;;10.37;2.70;;;;;;;12.11;71.52;101153.45;125596;1099;26610;-57
2021/05/30 09:56:39;;;;;;;8.90;2.53;;;;;;;12.18;71.01;101151.13;125726;1104;22836;-57
2021/05/30 09:59:12;;;;;;;11.40;2.23;;;;;;;12.24;71.34;101150.48;125767;1104;22784;-58
2021/05/30 10:01:58;;;;;;;8.45;2.85;;;;;;;12.33;70.66;101145.67;125705;1105;22742;-59
2021/05/30 10:04:30;;;;;;;10.10;3.70;;;;;;;12.41;69.99;101154.51;125635;1104;22772;-59
2021/05/30 10:07:03;;;;;;;6.10;2.30;;;;;;;12.47;70.00;101145.02;125609;1104;22746;-58
2021/05/30 10:09:35;;;;;;;5.15;1.80;;;;;;;12.54;69.70;101146.70;125796;1100;22768;-58
2021/05/30 10:12:08;;;;;;;6.23;1.70;;;;;;;12.62;69.81;101145.13;125694;1104;22778;-59
2021/05/30 10:14:38;;;;;;;5.73;1.80;;;;;;;12.66;69.49;101146.49;125794;1104;22781;-59
2021/05/30 10:17:11;;;;;;;8.28;1.98;;;;;;;12.82;70.23;101134.16;125913;1101;22878;-59
2021/05/30 10:19:46;;;;;;;5.60;2.10;;;;;;;12.93;69.78;101145.64;125988;1101;22747;-57
2021/05/30 10:22:19;;;;;;;5.20;1.80;;;;;;;13.00;69.33;101136.88;125928;1096;22809;-58
2021/05/30 10:24:49;;;;;;;7.57;2.00;;;;;;;13.10;69.56;101135.60;126073;1096;24637;-58
2021/05/30 10:27:23;;;;;;;6.40;1.97;;;;;;;13.20;68.10;101139.16;125880;1096;22752;-58
2021/05/30 10:30:18;;;;;;;6.50;1.80;;;;;;;13.28;68.99;101134.74;125933;1101;22734;-58
2021/05/30 10:33:08;;;;;;;5.83;1.73;;;;;;;13.38;68.49;101133.44;125948;1097;26194;-58
2021/05/30 10:35:39;;;;;;;5.55;1.60;;;;;;;13.40;68.10;101139.34;125892;1095;25967;-59
2021/05/30 10:38:10;;;;;;;4.90;1.60;;;;;;;13.39;68.63;101146.97;125961;1097;22755;-58
2021/05/30 10:40:45;;;;;;;7.20;2.25;;;;;;;13.32;67.87;101121.31;126186;1101;22734;-58
2021/05/30 10:43:19;;;;;;;8.73;2.17;;;;;;;13.32;67.76;101126.92;125983;1095;27277;-58
2021/05/30 10:46:01;;;;;;;5.05;1.70;;;;;;;13.37;67.81;101127.04;125925;1101;22855;-58
2021/05/30 10:48:31;;;;;;;5.57;1.60;;;;;;;13.59;68.15;101115.53;126115;1101;22731;-59
2021/05/30 10:51:11;;;;;;;;;;;;;;;13.80;67.07;101120.80;125998;1101;22789;-58
2021/05/30 10:53:43;;;;;;;7.63;1.90;;;;;;;13.86;66.17;101120.14;126083;1101;21522;-58
2021/05/30 10:56:23;;;;;;;4.77;1.43;;;;;;;13.82;65.71;101125.95;126012;1095;28269;-58
2021/05/30 10:59:25;;;;;;;7.00;1.53;;;;;;;13.81;67.11;101130.00;125961;1101;22893;-58
2021/05/30 11:01:57;;;;;;;5.43;1.60;;;;;;;13.84;66.50;101115.02;125924;1101;22759;-59
2021/05/30 11:04:39;;;;;;;6.20;1.60;;;;;;;13.83;66.89;101129.52;125922;1097;26629;-57
2021/05/30 11:07:24;;;;;;;5.50;1.43;;;;;;;13.87;66.74;101127.30;125951;1101;22728;-58
2021/05/30 11:10:23;;;;;;;5.10;1.65;;;;;;;13.94;66.88;101126.94;125845;1101;22728;-57
2021/05/30 11:12:55;;;;;;;5.90;1.70;;;;;;;14.01;66.70;101118.15;125881;1101;22755;-59
2021/05/30 11:15:42;;;;;;;4.10;1.40;;;;;;;14.02;66.19;101126.08;126303;1096;22742;-58
2021/05/30 11:18:19;;;;;;;6.20;1.50;;;;;;;14.00;65.65;101122.98;126038;1101;22843;-57
2021/05/30 11:20:51;;;;;;;5.60;1.60;;;;;;;13.99;65.43;101124.23;126030;1101;22833;-58
2021/05/30 11:23:23;;;;;;;4.30;1.30;;;;;;;13.95;65.08;101128.47;126112;1097;27690;-59
2021/05/30 11:25:56;;;;;;;4.40;1.40;;;;;;;13.95;64.99;101132.06;125969;1095;27138;-57
2021/05/30 11:28:28;;;;;;;6.40;1.50;;;;;;;13.97;65.44;101125.95;126070;1101;24531;-58
2021/05/30 11:31:00;;;;;;;5.10;1.50;;;;;;;14.10;65.88;101123.66;125982;1097;22995;-58
2021/05/30 11:33:43;;;;;;;4.60;1.30;;;;;;;14.29;65.26;101130.69;126041;1101;24147;-59
2021/05/30 11:36:27;;;;;;;5.20;1.40;;;;;;;14.48;64.76;101130.00;126002;1101;22738;-59
2021/05/30 11:38:59;;;;;;;5.50;1.40;;;;;;;14.62;64.56;101127.68;126040;1101;22734;-58
2021/05/30 11:41:31;;;;;;;4.47;1.33;;;;;;;14.73;63.94;101128.66;125933;1096;26178;-59
2021/05/30 11:44:19;;;;;;;4.50;1.50;;;;;;;14.79;61.73;101132.33;126652;1084;93813;-78